首页
METAR-TAF:

METAR-TAF

机场 :

Cabo San Lucas, 墨西哥

纬度: 22-56-51N, 经度: 109-56-13W, 海拔: 210米

当前天气观测

该预报发布于1小时和9分钟前的14:40 UTC
风速2节,风向东南
温度 28°C
湿度 58%
气压 1014 hPa
能見度: 16.1公里
天空无云

METAR: MMSL 211440Z 13002KT 10SM SKC 28/19 A2994 RMK CI

时间: 08:49 (15:49 UTC)

预报

该预报发布于11小时和8分钟前的04:41 UTC
预报有效从21日的 06点(UTC)到 22日的 06点(UTC)
风速节,风向
能見度: 10公里
天空无云
成为
从 21日的 16点(UTC)到 21日的 18点(UTC)
风速10节,风向西转西北
散云层高于3000英尺
散云层高于10000英尺
从 22日的 0500点(UTC)
风速节,风向
能見度: 10公里
天空无云

TAF: MMSL 210441Z 2106/2206 00000KT P6SM SKC BECMG 2116/2118 30010KT SCT030 SCT100 FM220500 00000KT P6SM SKC

超过4000个机场的气象观测和天气预报(METAR&TAF报告)。

可查询的气象台以黄色和红色小点在地图上表示。

将鼠标移到小点上方,可查看气象台名称。

然后点击查看天气观测和预报。

如需切换地图:点击带黑十字的绿色按钮放大地图;点击带横线的绿色按钮缩小地图;或者点击绿色箭头查看邻近地区的地图。


METAR-TAF: